KMCE/MCE METAR and TAF weather

Enter ICAO airport designator
Station Type Date Time Source
KMCE METAR 2020/09/20 09:53 UTC NOAA

KMCE 200953Z AUTO 00000KT 10SM CLR 16/11 A2987 RMK AO2 SLP115 T01610106


Station Type Date Time Source
KMCE Decoded METAR 2020/09/20 09:53 UTC NOAA

MERCED MUNICIPAL AIRPORT, CA, United States (KMCE) 37-17N 120-30W 47M
Sep 20, 2020 - 05:53 AM EDT / 2020.09.20 0953 UTC
Wind: Calm:0
Visibility: 10 mile(s):0
Sky conditions: clear
Temperature: 61.0 F (16.1 C)
Dew Point: 51.1 F (10.6 C)
Relative Humidity: 69%
Pressure (altimeter): 29.87 in. Hg (1011 hPa)
ob: KMCE 200953Z AUTO 00000KT 10SM CLR 16/11 A2987 RMK AO2 SLP115 T01610106
cycle: 10

Station Type Date Time Source
KMCE TAF 2020/09/20 06:22 UTC NOAA

TAF KMCE 200520Z 2006/2106 VRB03KT P6SM SKC
FM202000 32007KT P6SM SKC

Example: see airport list